Time;durP1;ratioP1;P1;durP2;ratioP2;P2;SDS_P1;SDS_P2;PMS_P1;PMS_P2;Temp;Humidity;BMP_temperature;BMP_pressure;BME280_temperature;BME280_humidity;BME280_pressure;Samples;Min_cycle;Max_cycle;Signal;HPM_P1;HPM_P2
2021/07/10 00:00:12;;;;;;;14.60;13.20;;;13.90;99.90;;;;;;5069517;28;20699;-92
2021/07/10 00:02:39;;;;;;;16.13;14.60;;;13.90;99.90;;;;;;5070952;28;21041;-93
2021/07/10 00:05:09;;;;;;;16.03;14.73;;;13.90;99.90;;;;;;5071416;28;20625;-92
2021/07/10 00:07:36;;;;;;;14.80;13.70;;;13.90;99.90;;;;;;5067041;28;20687;-92
2021/07/10 00:10:07;;;;;;;14.27;13.17;;;13.80;99.90;;;;;;5071312;28;21382;-92
2021/07/10 00:12:34;;;;;;;14.00;12.90;;;13.80;99.90;;;;;;5069441;28;20639;-93
2021/07/10 00:15:01;;;;;;;15.93;14.63;;;13.70;99.90;;;;;;5067710;28;20705;-90
2021/07/10 00:17:29;;;;;;;15.30;13.73;;;13.80;99.90;;;;;;5067003;28;20815;-93
2021/07/10 00:19:56;;;;;;;15.93;14.63;;;13.80;99.90;;;;;;5067084;28;20655;-92
2021/07/10 00:22:23;;;;;;;15.73;14.33;;;13.80;99.90;;;;;;5072009;28;20629;-91
2021/07/10 00:24:50;;;;;;;16.77;15.10;;;13.80;99.90;;;;;;5086171;28;20625;-92
2021/07/10 00:27:19;;;;;;;16.50;15.10;;;13.70;99.90;;;;;;5090034;28;20671;-92
2021/07/10 00:29:46;;;;;;;16.93;15.53;;;13.60;99.90;;;;;;5078107;28;21274;-92
2021/07/10 00:32:14;;;;;;;17.03;15.73;;;13.70;99.90;;;;;;5067803;28;21073;-92
2021/07/10 00:34:42;;;;;;;16.50;15.30;;;13.70;99.90;;;;;;5067946;28;20625;-92
2021/07/10 00:37:09;;;;;;;15.77;14.30;;;13.60;99.90;;;;;;5069583;28;20628;-93
2021/07/10 00:39:36;;;;;;;16.00;14.60;;;13.60;99.90;;;;;;5067589;28;20764;-93
2021/07/10 00:42:03;;;;;;;16.83;15.33;;;13.60;99.90;;;;;;5070563;28;20625;-91
2021/07/10 00:44:30;;;;;;;17.67;15.90;;;13.60;99.90;;;;;;5070487;28;20633;-92
2021/07/10 00:46:57;;;;;;;17.20;15.70;;;13.60;99.90;;;;;;5065117;28;20621;-92
2021/07/10 00:49:24;;;;;;;18.47;16.30;;;13.60;99.90;;;;;;5076105;28;20633;-93
2021/07/10 00:51:52;;;;;;;16.60;15.13;;;13.60;99.90;;;;;;5074150;28;21242;-93
2021/07/10 00:54:20;;;;;;;17.80;16.40;;;13.50;99.90;;;;;;5076258;28;20698;-92
2021/07/10 00:56:48;;;;;;;17.27;15.67;;;13.50;99.90;;;;;;5074864;28;20678;-93
2021/07/10 00:59:17;;;;;;;18.00;16.43;;;13.50;99.90;;;;;;5070505;28;20573;-91
2021/07/10 01:01:44;;;;;;;18.83;17.23;;;13.40;99.90;;;;;;5073830;28;20613;-91
2021/07/10 01:04:11;;;;;;;18.13;16.63;;;13.50;99.90;;;;;;5074452;28;20662;-92
2021/07/10 01:06:39;;;;;;;18.00;16.47;;;13.50;99.90;;;;;;5075399;28;20624;-91
2021/07/10 01:09:08;;;;;;;18.47;16.87;;;13.50;99.90;;;;;;5075660;28;21090;-92
2021/07/10 01:11:37;;;;;;;17.90;16.33;;;13.50;99.90;;;;;;5074845;28;20656;-92
2021/07/10 01:14:04;;;;;;;17.67;16.23;;;13.50;99.90;;;;;;5075140;28;21199;-92
2021/07/10 01:16:33;;;;;;;18.17;16.67;;;13.40;99.90;;;;;;5074267;28;20715;-90
2021/07/10 01:19:00;;;;;;;18.30;16.70;;;13.50;99.90;;;;;;5074635;28;20941;-92
2021/07/10 01:21:28;;;;;;;22.43;20.63;;;13.40;99.90;;;;;;5073001;28;20645;-92
2021/07/10 01:23:55;;;;;;;25.10;22.80;;;13.50;99.90;;;;;;5072739;28;21234;-92
2021/07/10 01:26:23;;;;;;;23.57;21.60;;;13.70;99.90;;;;;;5072664;28;20647;-93
2021/07/10 01:28:50;;;;;;;22.20;20.30;;;13.70;99.90;;;;;;5072224;28;20657;-92
2021/07/10 01:31:19;;;;;;;22.10;20.20;;;13.60;99.90;;;;;;5070751;28;20672;-90
2021/07/10 01:33:46;;;;;;;23.57;21.60;;;13.50;99.90;;;;;;5067691;28;20639;-91
2021/07/10 01:36:12;;;;;;;22.73;20.67;;;13.50;99.90;;;;;;5074188;28;20640;-92
2021/07/10 01:38:41;;;;;;;22.80;20.50;;;13.40;99.90;;;;;;5089575;28;20594;-91
2021/07/10 01:41:07;;;;;;;22.57;20.47;;;13.40;99.90;;;;;;5088215;28;20716;-91
2021/07/10 01:43:34;;;;;;;19.40;17.83;;;13.30;99.90;;;;;;5077163;28;20625;-91
2021/07/10 01:46:01;;;;;;;19.70;18.03;;;13.30;99.90;;;;;;5068002;28;20625;-91
2021/07/10 01:48:28;;;;;;;20.83;18.83;;;13.20;99.90;;;;;;5067562;28;20648;-92
2021/07/10 01:50:55;;;;;;;18.87;17.47;;;13.20;99.90;;;;;;5068915;28;20653;-91
2021/07/10 01:53:22;;;;;;;21.60;19.70;;;13.20;99.90;;;;;;5063333;28;20602;-91
2021/07/10 01:55:50;;;;;;;20.73;18.70;;;13.20;99.90;;;;;;5069018;28;20815;-91
2021/07/10 01:58:17;;;;;;;22.53;20.43;;;13.20;99.90;;;;;;5066041;28;21190;-91
2021/07/10 02:00:45;;;;;;;112.83;25.60;;;13.20;99.90;;;;;;5067128;28;20626;-91
2021/07/10 02:03:13;;;;;;;161.67;30.27;;;13.30;99.90;;;;;;5069550;28;20628;-91
2021/07/10 02:05:40;;;;;;;425.57;37.50;;;13.30;99.90;;;;;;5067553;28;20631;-91
2021/07/10 02:08:08;;;;;;;244.10;32.43;;;13.30;99.90;;;;;;5060011;28;20660;-91
2021/07/10 02:10:35;;;;;;;290.30;32.30;;;13.40;99.90;;;;;;5068896;28;20681;-91
2021/07/10 02:13:08;;;;;;;316.43;37.67;;;13.40;99.90;;;;;;5067447;28;21171;-92
2021/07/10 02:15:35;;;;;;;99.63;26.00;;;13.40;99.90;;;;;;5064781;28;20640;-91
2021/07/10 02:18:03;;;;;;;241.97;34.47;;;13.30;99.90;;;;;;5064560;28;20617;-91
2021/07/10 02:20:30;;;;;;;131.40;30.80;;;13.30;99.90;;;;;;5063205;28;20655;-92
2021/07/10 02:22:58;;;;;;;86.13;25.33;;;13.30;99.90;;;;;;5067592;28;20620;-92
2021/07/10 02:25:28;;;;;;;95.83;24.90;;;13.30;99.90;;;;;;5068715;28;20610;-91
2021/07/10 02:27:55;;;;;;;179.23;30.27;;;13.30;99.90;;;;;;5068322;28;20649;-91
2021/07/10 02:30:26;;;;;;;54.77;23.57;;;13.20;99.90;;;;;;5077618;28;20712;-91
2021/07/10 02:32:55;;;;;;;142.47;27.90;;;13.30;99.90;;;;;;5092063;28;20655;-91
2021/07/10 02:35:22;;;;;;;127.67;28.57;;;13.30;99.90;;;;;;5059565;28;20957;-91
2021/07/10 02:37:50;;;;;;;86.60;25.77;;;13.20;99.90;;;;;;5068623;28;20987;-91
2021/07/10 02:40:19;;;;;;;243.73;31.30;;;13.30;99.90;;;;;;5069126;28;21372;-91
2021/07/10 02:42:46;;;;;;;562.47;45.13;;;13.30;99.90;;;;;;5066913;28;21045;-91
2021/07/10 02:45:14;;;;;;;437.63;38.67;;;13.30;99.90;;;;;;5067910;28;20617;-91
2021/07/10 02:47:42;;;;;;;728.67;53.37;;;13.30;99.90;;;;;;5068063;28;21263;-91
2021/07/10 02:50:12;;;;;;;473.03;42.60;;;13.40;99.90;;;;;;5066880;28;20661;-91
2021/07/10 02:52:39;;;;;;;475.97;40.33;;;13.40;99.90;;;;;;5068834;28;20625;-91
2021/07/10 02:55:07;;;;;;;437.53;42.00;;;13.40;99.90;;;;;;5066000;28;21180;-92
2021/07/10 02:57:34;;;;;;;399.93;43.43;;;13.50;99.90;;;;;;5066275;28;21410;-92
2021/07/10 03:00:01;;;;;;;334.90;37.17;;;13.40;99.90;;;;;;5067064;28;20657;-91
2021/07/10 03:02:28;;;;;;;270.57;34.37;;;13.40;99.90;;;;;;5068740;28;20993;-91
2021/07/10 03:04:56;;;;;;;223.47;30.53;;;13.30;99.90;;;;;;5067290;28;20612;-92
2021/07/10 03:07:23;;;;;;;171.00;27.40;;;13.30;99.90;;;;;;5060501;28;20660;-91
2021/07/10 03:09:50;;;;;;;193.90;30.80;;;13.30;99.90;;;;;;5066187;28;20987;-91
2021/07/10 03:12:17;;;;;;;97.97;23.77;;;13.30;99.90;;;;;;5064087;28;20659;-91
2021/07/10 03:14:44;;;;;;;124.27;26.13;;;13.30;99.90;;;;;;5068862;28;20640;-91
2021/07/10 03:17:10;;;;;;;133.80;24.83;;;13.20;99.90;;;;;;5065321;28;20690;-91
2021/07/10 03:19:37;;;;;;;114.87;23.57;;;13.10;99.90;;;;;;5067283;28;20653;-91
2021/07/10 03:22:06;;;;;;;59.57;20.40;;;13.00;99.90;;;;;;5066699;28;21183;-91
2021/07/10 03:24:34;;;;;;;30.93;18.87;;;13.10;99.90;;;;;;5066324;28;20644;-91
2021/07/10 03:27:01;;;;;;;40.90;18.90;;;13.10;99.90;;;;;;5068414;28;21195;-91
2021/07/10 03:29:27;;;;;;;55.17;21.87;;;13.00;99.90;;;;;;5067433;28;21068;-91
2021/07/10 03:31:54;;;;;;;22.60;17.90;;;13.00;99.90;;;;;;5060273;28;20657;-93
2021/07/10 03:34:21;;;;;;;21.23;17.13;;;13.00;99.90;;;;;;5063392;28;21014;-92
2021/07/10 03:36:48;;;;;;;20.47;18.30;;;12.90;99.90;;;;;;5065871;28;20629;-92
2021/07/10 03:39:16;;;;;;;20.00;18.00;;;12.90;99.90;;;;;;5066321;28;20973;-92
2021/07/10 03:41:44;;;;;;;17.73;16.20;;;12.90;99.90;;;;;;5066512;28;20633;-92
2021/07/10 03:44:10;;;;;;;49.23;20.50;;;13.00;99.90;;;;;;5050233;28;20633;-92
2021/07/10 03:46:38;;;;;;;72.17;22.07;;;13.10;99.90;;;;;;5059133;28;20673;-92
2021/07/10 03:49:04;;;;;;;24.10;19.90;;;13.10;99.90;;;;;;5066836;28;20661;-92
2021/07/10 03:51:31;;;;;;;58.80;21.37;;;13.10;99.90;;;;;;5074312;28;20668;-92
2021/07/10 03:53:58;;;;;;;112.43;25.23;;;13.20;99.90;;;;;;5069031;28;20645;-92
2021/07/10 03:56:26;;;;;;;287.57;33.63;;;13.20;99.90;;;;;;5067374;28;20984;-92
2021/07/10 03:58:53;;;;;;;187.97;30.03;;;13.30;99.90;;;;;;5067200;28;20625;-92
2021/07/10 04:01:20;;;;;;;88.77;24.30;;;13.30;99.90;;;;;;5067542;28;20657;-92
2021/07/10 04:03:47;;;;;;;212.37;28.30;;;13.40;99.90;;;;;;5065222;28;20617;-92
2021/07/10 04:06:16;;;;;;;220.10;30.00;;;13.40;99.90;;;;;;5065991;28;20614;-92
2021/07/10 04:08:43;;;;;;;501.73;41.40;;;13.50;99.90;;;;;;5066270;28;20669;-91
2021/07/10 04:11:10;;;;;;;191.63;26.10;;;13.50;99.90;;;;;;5063965;28;20664;-92
2021/07/10 04:13:38;;;;;;;411.33;34.00;;;13.50;99.90;;;;;;5068381;28;20625;-91
2021/07/10 04:16:06;;;;;;;334.33;31.40;;;13.60;99.90;;;;;;5065867;28;20632;-91
2021/07/10 04:18:33;;;;;;;330.67;33.07;;;13.50;99.90;;;;;;5064154;28;20624;-91
2021/07/10 04:21:00;;;;;;;387.60;35.30;;;13.50;99.90;;;;;;5047073;28;20653;-91
2021/07/10 04:23:26;;;;;;;326.80;33.37;;;13.50;99.90;;;;;;5066850;28;20609;-91
2021/07/10 04:25:54;;;;;;;187.20;27.07;;;13.50;99.90;;;;;;5066694;28;20608;-92
2021/07/10 04:28:20;;;;;;;84.53;23.70;;;13.60;99.90;;;;;;5066819;28;20637;-91
2021/07/10 04:30:49;;;;;;;101.73;20.27;;;13.70;99.90;;;;;;5089743;28;20660;-91
2021/07/10 04:33:17;;;;;;;139.13;21.67;;;13.70;99.90;;;;;;5082155;28;20728;-91
2021/07/10 04:35:44;;;;;;;173.50;24.40;;;13.70;99.90;;;;;;5067966;28;20720;-91
2021/07/10 04:38:11;;;;;;;177.97;23.40;;;13.60;99.90;;;;;;5064468;28;20995;-92
2021/07/10 04:40:38;;;;;;;59.03;20.20;;;13.50;99.90;;;;;;5067330;28;20656;-91
2021/07/10 04:43:05;;;;;;;127.13;19.93;;;13.60;99.90;;;;;;5067354;28;20976;-92
2021/07/10 04:45:32;;;;;;;92.60;18.97;;;13.70;99.90;;;;;;5063093;28;20622;-91
2021/07/10 04:48:00;;;;;;;145.93;21.43;;;13.70;99.90;;;;;;5064020;28;20617;-91
2021/07/10 04:50:27;;;;;;;149.67;21.50;;;13.70;99.90;;;;;;5063498;28;20646;-91
2021/07/10 04:52:54;;;;;;;161.93;22.00;;;13.70;99.90;;;;;;5067012;28;20958;-91
2021/07/10 04:55:21;;;;;;;67.97;18.17;;;13.60;99.90;;;;;;5065700;28;21159;-91
2021/07/10 04:57:48;;;;;;;73.33;18.67;;;13.70;99.90;;;;;;5066676;28;20633;-91
2021/07/10 05:00:16;;;;;;;81.93;18.87;;;13.90;99.90;;;;;;5067133;28;21210;-91
2021/07/10 05:02:44;;;;;;;39.67;17.60;;;13.90;99.90;;;;;;5059901;28;20626;-91
2021/07/10 05:05:13;;;;;;;234.00;23.93;;;14.00;99.90;;;;;;5065091;28;20621;-89
2021/07/10 05:07:40;;;;;;;155.97;21.17;;;14.00;99.90;;;;;;5063902;28;20625;-90
2021/07/10 05:10:08;;;;;;;246.10;23.50;;;14.20;99.90;;;;;;5063826;28;20682;-90
2021/07/10 05:12:36;;;;;;;133.73;18.73;;;14.10;99.90;;;;;;5065140;28;20621;-92
2021/07/10 05:15:04;;;;;;;189.47;23.27;;;14.00;99.90;;;;;;5065776;28;20625;-90
2021/07/10 05:17:31;;;;;;;115.27;17.57;;;14.10;99.90;;;;;;5054005;28;21003;-90
2021/07/10 05:19:57;;;;;;;187.30;21.20;;;14.20;99.90;;;;;;5059681;28;20863;-92
2021/07/10 05:22:26;;;;;;;167.43;21.20;;;14.20;99.90;;;;;;5058365;28;21232;-91
2021/07/10 05:24:53;;;;;;;208.77;22.30;;;14.30;99.90;;;;;;5062175;28;20632;-91
2021/07/10 05:27:22;;;;;;;126.20;19.03;;;14.20;99.90;;;;;;5057691;28;20699;-92
2021/07/10 05:29:50;;;;;;;255.63;22.40;;;14.30;99.90;;;;;;5040973;28;21246;-91
2021/07/10 05:32:18;;;;;;;274.87;26.27;;;14.40;99.90;;;;;;5060753;28;20624;-91
2021/07/10 05:34:45;;;;;;;206.47;23.30;;;14.40;99.90;;;;;;5063167;28;20636;-91
2021/07/10 05:37:12;;;;;;;349.77;28.40;;;14.30;99.90;;;;;;5066657;28;21408;-91
2021/07/10 05:39:42;;;;;;;317.37;25.83;;;14.50;99.90;;;;;;5057931;28;20643;-91
2021/07/10 05:42:10;;;;;;;52.77;16.17;;;14.50;99.90;;;;;;5067159;28;20682;-91
2021/07/10 05:44:37;;;;;;;88.30;17.97;;;14.60;99.90;;;;;;5063023;28;20621;-91
2021/07/10 05:47:04;;;;;;;42.83;16.20;;;14.70;99.90;;;;;;5061160;28;21174;-91
2021/07/10 05:49:31;;;;;;;15.30;13.73;;;14.90;99.90;;;;;;5065344;28;20661;-91
2021/07/10 05:51:58;;;;;;;14.00;12.90;;;15.20;99.90;;;;;;5064781;28;20714;-91
2021/07/10 05:54:29;;;;;;;12.53;11.27;;;15.50;99.90;;;;;;5064389;28;20631;-90
2021/07/10 05:56:58;;;;;;;14.33;13.33;;;15.50;99.90;;;;;;5064499;28;20955;-90
2021/07/10 05:59:27;;;;;;;13.60;11.30;;;15.70;99.90;;;;;;5061819;28;20914;-91
2021/07/10 06:01:55;;;;;;;11.00;10.10;;;15.70;99.90;;;;;;5061573;28;20628;-90
2021/07/10 06:04:24;;;;;;;11.00;10.13;;;15.90;99.90;;;;;;5063591;28;20644;-90
2021/07/10 06:06:51;;;;;;;9.83;9.00;;;16.00;99.90;;;;;;5062909;28;21275;-90
2021/07/10 06:09:18;;;;;;;13.13;12.07;;;16.10;99.90;;;;;;5065013;28;20822;-91
2021/07/10 06:11:46;;;;;;;12.83;11.73;;;16.10;99.90;;;;;;5062935;28;21124;-91
2021/07/10 06:14:14;;;;;;;14.90;13.70;;;16.10;99.90;;;;;;5054666;28;20600;-91
2021/07/10 06:16:41;;;;;;;14.03;12.87;;;16.10;99.90;;;;;;5060380;28;20751;-91
2021/07/10 06:19:08;;;;;;;15.20;13.97;;;16.20;99.90;;;;;;5062889;28;20675;-90
2021/07/10 06:21:35;;;;;;;15.27;14.07;;;16.30;99.90;;;;;;5064899;28;20665;-90
2021/07/10 06:24:02;;;;;;;12.70;11.40;;;16.50;99.90;;;;;;5062940;28;20843;-91
2021/07/10 06:26:29;;;;;;;12.07;10.97;;;16.50;99.90;;;;;;5062715;28;20628;-90
2021/07/10 06:28:56;;;;;;;13.80;12.80;;;16.40;99.90;;;;;;5071050;28;20621;-90
2021/07/10 06:31:24;;;;;;;12.77;11.47;;;16.30;99.90;;;;;;5088767;28;20736;-90
2021/07/10 06:33:51;;;;;;;13.53;12.47;;;16.30;99.90;;;;;;5074105;28;20633;-90
2021/07/10 06:36:18;;;;;;;13.93;12.67;;;16.30;99.90;;;;;;5061289;28;20621;-90
2021/07/10 06:38:45;;;;;;;13.00;11.90;;;16.60;99.90;;;;;;5062181;28;20625;-90
2021/07/10 06:41:12;;;;;;;11.17;10.07;;;16.90;99.90;;;;;;5063988;28;20648;-91
2021/07/10 06:43:39;;;;;;;10.77;9.77;;;17.00;99.90;;;;;;5066273;28;20628;-90
2021/07/10 06:46:07;;;;;;;12.53;11.53;;;16.80;99.90;;;;;;5064296;28;20637;-90
2021/07/10 06:48:35;;;;;;;12.00;11.10;;;16.80;99.90;;;;;;5058837;28;20690;-91
2021/07/10 06:51:02;;;;;;;11.47;10.67;;;16.80;99.90;;;;;;5061695;28;20644;-90
2021/07/10 06:53:29;;;;;;;13.10;11.97;;;16.90;99.90;;;;;;5061400;28;20605;-90
2021/07/10 06:55:56;;;;;;;12.27;11.27;;;17.10;99.90;;;;;;5064130;28;20640;-90
2021/07/10 06:58:23;;;;;;;12.47;11.50;;;17.20;99.90;;;;;;5068430;28;21038;-90
2021/07/10 07:00:50;;;;;;;10.10;9.20;;;17.10;99.90;;;;;;5061661;28;21029;-90
2021/07/10 07:03:17;;;;;;;10.93;10.03;;;17.20;99.90;;;;;;5063227;28;20587;-89
2021/07/10 07:05:45;;;;;;;12.83;11.73;;;17.50;99.90;;;;;;5067826;28;20624;-91
2021/07/10 07:08:12;;;;;;;13.93;12.87;;;17.60;99.90;;;;;;5061828;28;20637;-90
2021/07/10 07:10:39;;;;;;;10.13;9.23;;;17.80;99.90;;;;;;5063801;28;20677;-90
2021/07/10 07:13:06;;;;;;;12.73;11.70;;;17.80;99.90;;;;;;5072742;28;20610;-91
2021/07/10 07:15:33;;;;;;;12.93;12.00;;;17.80;99.90;;;;;;5043413;28;20686;-89
2021/07/10 07:18:00;;;;;;;12.10;11.03;;;17.70;99.90;;;;;;5061160;28;20633;-91
2021/07/10 07:20:28;;;;;;;10.90;9.80;;;17.90;99.90;;;;;;5084489;28;20721;-90
2021/07/10 07:22:57;;;;;;;9.60;8.80;;;17.90;99.90;;;;;;5089433;28;20640;-89
2021/07/10 07:25:24;;;;;;;10.77;9.73;;;18.20;99.90;;;;;;5086832;28;20624;-90
2021/07/10 07:27:53;;;;;;;10.40;9.60;;;18.30;99.90;;;;;;5068334;28;21197;-90
2021/07/10 07:30:20;;;;;;;10.53;9.63;;;18.30;99.90;;;;;;5066590;28;20707;-91
2021/07/10 07:32:47;;;;;;;10.07;9.10;;;18.30;99.90;;;;;;5060546;28;20977;-91
2021/07/10 07:35:16;;;;;;;8.33;7.63;;;18.60;99.90;;;;;;5062359;28;20665;-89
2021/07/10 07:37:44;;;;;;;9.73;8.90;;;18.80;99.90;;;;;;5061912;28;20629;-89
2021/07/10 07:40:16;;;;;;;10.70;9.80;;;18.70;99.90;;;;;;5059620;28;21329;-90
2021/07/10 07:42:43;;;;;;;10.73;8.70;;;18.80;99.90;;;;;;5046973;28;20689;-90
2021/07/10 07:45:11;;;;;;;9.93;9.13;;;18.90;99.90;;;;;;5063557;28;20620;-90
2021/07/10 07:47:39;;;;;;;9.80;8.53;;;18.80;99.90;;;;;;5054613;28;20632;-90
2021/07/10 07:50:09;;;;;;;9.47;8.57;;;18.90;99.90;;;;;;5067752;28;21043;-91
2021/07/10 07:52:36;;;;;;;9.17;8.27;;;19.20;99.90;;;;;;5064044;28;20652;-90
2021/07/10 07:55:05;;;;;;;8.77;7.93;;;19.20;99.90;;;;;;5065701;28;20639;-90
2021/07/10 07:57:33;;;;;;;8.70;7.90;;;19.40;99.90;;;;;;5063663;28;21196;-91
2021/07/10 08:00:00;;;;;;;8.53;7.77;;;19.50;99.90;;;;;;5061786;28;21007;-90
2021/07/10 08:02:27;;;;;;;9.20;8.40;;;19.50;99.90;;;;;;5062745;28;20631;-91
2021/07/10 08:04:54;;;;;;;9.07;8.27;;;19.50;99.90;;;;;;5064686;28;20598;-91
2021/07/10 08:07:20;;;;;;;8.90;8.20;;;19.80;99.90;;;;;;5063229;28;21157;-90
2021/07/10 08:09:47;;;;;;;7.87;7.17;;;20.00;99.90;;;;;;5064391;28;20684;-91
2021/07/10 08:12:14;;;;;;;8.90;8.10;;;20.10;99.90;;;;;;5065530;28;20632;-90
2021/07/10 08:14:43;;;;;;;9.00;8.10;;;20.00;99.90;;;;;;5059349;28;20637;-90
2021/07/10 08:17:09;;;;;;;7.63;7.03;;;20.10;99.90;;;;;;5060632;28;20625;-92
2021/07/10 08:19:37;;;;;;;8.03;7.37;;;20.30;99.90;;;;;;5063585;28;20649;-90
2021/07/10 08:22:06;;;;;;;10.20;7.87;;;20.50;99.90;;;;;;5062873;28;20628;-91
2021/07/10 08:24:33;;;;;;;7.97;7.27;;;20.70;99.90;;;;;;5058194;28;21270;-91
2021/07/10 08:27:00;;;;;;;6.73;6.13;;;20.70;99.90;;;;;;5060966;28;20628;-91
2021/07/10 08:29:28;;;;;;;6.60;6.10;;;20.90;99.90;;;;;;5065432;28;20657;-92
2021/07/10 08:31:56;;;;;;;7.27;6.40;;;21.00;99.90;;;;;;5065525;28;20589;-92
2021/07/10 08:34:23;;;;;;;7.13;6.43;;;21.00;99.90;;;;;;5083587;28;20624;-91
2021/07/10 08:36:50;;;;;;;7.03;6.40;;;21.00;99.90;;;;;;5082093;28;20622;-91
2021/07/10 08:39:23;;;;;;;6.57;6.07;;;21.00;99.90;;;;;;5070119;28;20663;-93
2021/07/10 08:41:52;;;;;;;7.27;6.67;;;21.20;99.90;;;;;;5059640;28;20581;-92
2021/07/10 08:44:19;;;;;;;7.23;6.30;;;21.30;99.90;;;;;;5064558;28;20614;-91
2021/07/10 08:46:47;;;;;;;6.90;6.20;;;21.10;99.90;;;;;;5060906;28;20617;-92
2021/07/10 08:49:16;;;;;;;6.57;5.93;;;21.20;99.90;;;;;;5061202;28;20641;-92
2021/07/10 08:51:45;;;;;;;6.63;6.13;;;21.40;99.90;;;;;;5065547;28;20629;-91
2021/07/10 08:54:18;;;;;;;7.43;5.90;;;21.40;99.90;;;;;;5073414;28;20680;-92
2021/07/10 08:56:46;;;;;;;7.40;6.60;;;21.70;99.90;;;;;;5065795;28;20643;-92
2021/07/10 08:59:17;;;;;;;5.90;5.40;;;21.80;99.90;;;;;;5060047;28;20617;-93
2021/07/10 09:01:47;;;;;;;6.13;5.60;;;21.80;99.90;;;;;;5063446;28;20625;-92
2021/07/10 09:04:15;;;;;;;5.97;5.50;;;21.60;99.90;;;;;;5062311;28;20639;-93
2021/07/10 09:06:43;;;;;;;5.73;5.17;;;21.70;99.90;;;;;;5066512;28;20633;-93
2021/07/10 09:09:12;;;;;;;5.60;5.10;;;22.00;99.90;;;;;;5065086;28;20636;-92
2021/07/10 09:11:40;;;;;;;6.07;4.47;;;22.20;99.90;;;;;;5069532;28;20687;-92
2021/07/10 09:14:07;;;;;;;5.43;5.13;;;22.50;99.90;;;;;;5066810;28;20660;-92
2021/07/10 09:16:35;;;;;;;4.77;4.47;;;22.50;99.90;;;;;;5064586;28;20627;-92
2021/07/10 09:19:05;;;;;;;3.83;3.60;;;22.60;99.90;;;;;;5066285;28;20626;-93
2021/07/10 09:21:40;;;;;;;3.80;3.50;;;22.70;99.90;;;;;;5065284;28;20652;-92
2021/07/10 09:24:10;;;;;;;3.00;2.80;;;22.90;99.90;;;;;;5069679;28;20670;-92
2021/07/10 09:26:42;;;;;;;3.43;3.23;;;22.90;99.90;;;;;;5071142;28;20617;-92
2021/07/10 09:29:12;;;;;;;3.63;3.33;;;23.00;99.90;;;;;;5068175;28;20660;-92
2021/07/10 09:31:41;;;;;;;4.13;3.60;;;23.30;99.90;;;;;;5075618;28;20768;-93
2021/07/10 09:34:12;;;;;;;3.23;3.00;;;23.20;99.90;;;;;;5070252;28;21048;-93
2021/07/10 09:36:52;;;;;;;3.37;3.17;;;23.50;99.90;;;;;;5070088;28;20645;-93
2021/07/10 09:39:21;;;;;;;3.20;3.00;;;23.50;99.90;;;;;;5067153;28;21209;-92
2021/07/10 09:41:48;;;;;;;2.80;2.60;;;23.60;99.90;;;;;;5072125;28;20605;-93
2021/07/10 09:44:17;;;;;;;3.60;3.30;;;23.50;99.90;;;;;;5071796;28;20628;-92
2021/07/10 09:46:44;;;;;;;3.83;2.70;;;24.00;99.90;;;;;;5062174;28;21015;-92
2021/07/10 09:49:26;;;;;;;3.10;2.90;;;24.00;99.90;;;;;;5066499;28;20617;-92
2021/07/10 09:52:13;;;;;;;3.03;2.83;;;24.30;99.90;;;;;;5059876;28;20664;-92
2021/07/10 09:54:42;;;;;;;4.20;3.30;;;24.00;99.90;;;;;;5064400;28;20636;-92
2021/07/10 09:57:12;;;;;;;2.80;2.60;;;23.80;99.90;;;;;;5061279;28;20636;-92
2021/07/10 09:59:42;;;;;;;2.90;2.70;;;24.10;99.90;;;;;;5061245;28;20656;-91
2021/07/10 10:02:20;;;;;;;3.27;3.07;;;24.10;99.90;;;;;;5062972;28;20644;-92
2021/07/10 10:04:47;;;;;;;4.53;3.20;;;24.50;99.90;;;;;;5055907;28;20641;-91
2021/07/10 10:07:20;;;;;;;3.73;3.00;;;24.60;99.90;;;;;;5064940;28;20628;-91
2021/07/10 10:09:54;;;;;;;2.93;2.63;;;24.50;99.90;;;;;;5064707;28;20659;-92
2021/07/10 10:12:21;;;;;;;3.10;2.80;;;24.70;99.90;;;;;;5058164;28;21332;-91
2021/07/10 10:14:50;;;;;;;3.40;3.03;;;24.60;99.90;;;;;;5060280;28;20629;-92
2021/07/10 10:17:21;;;;;;;3.37;3.17;;;24.50;99.90;;;;;;5062883;28;20736;-92
2021/07/10 10:19:48;;;;;;;3.13;2.83;;;24.50;99.90;;;;;;5061151;28;20728;-92
2021/07/10 10:22:18;;;;;;;2.97;2.70;;;24.30;99.90;;;;;;5064044;28;20628;-92
2021/07/10 10:24:47;;;;;;;3.03;2.83;;;24.50;99.90;;;;;;5062325;28;20624;-92
2021/07/10 10:27:14;;;;;;;4.27;2.27;;;24.90;99.90;;;;;;5065937;28;20641;-91
2021/07/10 10:29:41;;;;;;;3.30;2.00;;;25.10;99.90;;;;;;5062933;28;20675;-92
2021/07/10 10:32:10;;;;;;;2.33;2.23;;;25.10;99.90;;;;;;5063868;28;20756;-92
2021/07/10 10:34:39;;;;;;;2.20;2.10;;;25.60;99.90;;;;;;5068896;28;20705;-91
2021/07/10 10:37:09;;;;;;;2.40;2.10;;;25.50;98.80;;;;;;5053716;28;21077;-92
2021/07/10 10:39:39;;;;;;;4.50;2.70;;;25.70;97.50;;;;;;5066579;28;20649;-92
2021/07/10 10:42:10;;;;;;;3.50;2.43;;;25.70;99.50;;;;;;5060104;28;20631;-92
2021/07/10 10:44:40;;;;;;;3.10;2.90;;;26.00;98.90;;;;;;5054656;28;20744;-91
2021/07/10 10:47:09;;;;;;;2.43;2.33;;;26.20;96.10;;;;;;5060824;28;20687;-92
2021/07/10 10:49:46;;;;;;;2.97;2.67;;;26.20;97.20;;;;;;5062187;28;20654;-91
2021/07/10 10:52:36;;;;;;;2.97;2.77;;;26.60;97.80;;;;;;5066293;28;20982;-91
2021/07/10 10:55:20;;;;;;;4.53;2.17;;;26.10;96.70;;;;;;5066254;28;21147;-90
2021/07/10 10:57:50;;;;;;;2.37;2.27;;;25.90;95.90;;;;;;5067539;28;20641;-92
2021/07/10 11:00:32;;;;;;;2.47;2.27;;;26.00;96.30;;;;;;5062298;28;21184;-91
2021/07/10 11:03:08;;;;;;;2.70;2.50;;;26.40;93.60;;;;;;5063936;28;20702;-92
2021/07/10 11:05:43;;;;;;;2.57;2.47;;;26.60;99.40;;;;;;5063462;28;21002;-91
2021/07/10 11:08:26;;;;;;;2.83;2.63;;;26.70;92.90;;;;;;5066592;28;20621;-91
2021/07/10 11:11:30;;;;;;;2.60;2.40;;;26.70;94.90;;;;;;5061271;28;20676;-92
2021/07/10 11:14:15;;;;;;;3.00;2.80;;;27.40;94.70;;;;;;5067026;28;20794;-90
2021/07/10 11:17:08;;;;;;;5.20;3.00;;;27.20;93.70;;;;;;5062122;28;20621;-91
2021/07/10 11:19:55;;;;;;;3.13;2.93;;;26.70;98.20;;;;;;5040804;28;20667;-92
2021/07/10 11:23:03;;;;;;;2.70;2.50;;;27.20;94.00;;;;;;5068015;28;21458;-92
2021/07/10 11:26:10;;;;;;;2.90;2.70;;;27.40;95.90;;;;;;5067115;28;20585;-92
2021/07/10 11:28:57;;;;;;;2.93;2.73;;;27.40;94.20;;;;;;5064408;28;20624;-91
2021/07/10 11:31:35;;;;;;;3.20;2.90;;;27.60;93.40;;;;;;5066646;28;21057;-91
2021/07/10 11:34:05;;;;;;;2.93;2.77;;;28.10;91.60;;;;;;5063585;28;21158;-91
2021/07/10 11:37:04;;;;;;;3.43;3.10;;;28.50;94.80;;;;;;5066653;28;21086;-92
2021/07/10 11:39:58;;;;;;;2.90;2.70;;;28.40;95.80;;;;;;5062108;28;20630;-91
2021/07/10 11:42:49;;;;;;;3.43;3.20;;;28.40;96.50;;;;;;5063346;28;21262;-91
2021/07/10 11:45:24;;;;;;;2.80;2.70;;;28.20;94.90;;;;;;5061316;28;20965;-92
2021/07/10 11:47:54;;;;;;;3.27;3.00;;;28.50;95.80;;;;;;5062853;28;20693;-91
2021/07/10 11:50:23;;;;;;;3.20;2.93;;;27.80;95.90;;;;;;5066462;28;20661;-91
2021/07/10 11:53:02;;;;;;;3.43;3.13;;;26.90;99.60;;;;;;5046955;28;20659;-92
2021/07/10 11:55:34;;;;;;;3.20;3.00;;;27.10;97.80;;;;;;5045980;28;20634;-92
2021/07/10 11:58:06;;;;;;;3.13;2.70;;;26.30;98.20;;;;;;5073187;28;21046;-91
2021/07/10 12:00:33;;;;;;;2.63;2.53;;;26.40;99.90;;;;;;5065701;28;20664;-91
2021/07/10 12:03:14;;;;;;;3.07;2.83;;;27.40;96.80;;;;;;5064950;28;20634;-91
2021/07/10 12:05:43;;;;;;;2.87;2.67;;;28.00;91.80;;;;;;5058282;28;21177;-92
2021/07/10 12:08:09;;;;;;;2.63;2.43;;;28.60;91.90;;;;;;5065016;28;20628;-91
2021/07/10 12:10:40;;;;;;;3.17;2.40;;;29.30;92.90;;;;;;5066784;28;20665;-92
2021/07/10 12:13:10;;;;;;;2.90;2.60;;;29.30;90.90;;;;;;5060958;28;20630;-92
2021/07/10 12:15:39;;;;;;;2.87;2.67;;;29.20;86.20;;;;;;5060709;28;20652;-93
2021/07/10 12:18:09;;;;;;;2.73;2.53;;;29.50;89.90;;;;;;5064442;28;21060;-93
2021/07/10 12:20:38;;;;;;;2.63;2.43;;;30.00;92.30;;;;;;5061008;28;20698;-93
2021/07/10 12:23:07;;;;;;;2.43;2.23;;;29.80;88.50;;;;;;5069923;28;20623;-92
2021/07/10 12:25:42;;;;;;;2.73;2.53;;;28.90;90.90;;;;;;5067454;28;20695;-92
2021/07/10 12:28:09;;;;;;;2.47;2.27;;;27.70;91.20;;;;;;5070602;28;20678;-92
2021/07/10 12:30:46;;;;;;;3.50;2.90;;;27.30;92.10;;;;;;5069143;28;20648;-91
2021/07/10 12:33:42;;;;;;;3.00;2.80;;;27.00;94.50;;;;;;5065978;28;20613;-92
2021/07/10 12:36:16;;;;;;;2.80;2.60;;;27.10;95.30;;;;;;5072557;28;21205;-93
2021/07/10 12:39:10;;;;;;;3.53;2.30;;;28.80;92.20;;;;;;5049494;28;20632;-92
2021/07/10 12:41:48;;;;;;;3.23;3.03;;;28.70;91.40;;;;;;5067145;28;20716;-92
2021/07/10 12:44:28;;;;;;;2.40;2.20;;;29.60;91.60;;;;;;5064335;28;20620;-93